Time;durP1;ratioP1;P1;durP2;ratioP2;P2;SDS_P1;SDS_P2;PMS_P1;PMS_P2;Temp;Humidity;BMP_temperature;BMP_pressure;BME280_temperature;BME280_humidity;BME280_pressure;Samples;Min_cycle;Max_cycle;Signal;HPM_P1;HPM_P2
2022/09/17 00:01:34;;;;;;;;;2.00;2.00;;;;;;;;6179313;23;45259;-92
2022/09/17 00:04:02;;;;;;;;;1.00;1.00;;;;;;;;6180146;23;45361;-92
2022/09/17 00:06:28;;;;;;;;;2.00;2.00;;;;;;;;6179426;23;47015;-92
2022/09/17 00:08:53;;;;;;;;;3.67;3.00;;;;;;;;6179519;23;45387;-92
2022/09/17 00:11:22;;;;;;;;;1.33;1.33;;;;;;;;6181180;23;45388;-92
2022/09/17 00:13:48;;;;;;;;;3.00;2.00;;;;;;;;6178875;23;45326;-92
2022/09/17 00:16:19;;;;;;;;;4.00;3.00;;;;;;;;6178885;23;47259;-91
2022/09/17 00:18:45;;;;;;;;;3.67;3.33;;;;;;;;6181192;23;45286;-91
2022/09/17 00:21:17;;;;;;;;;1.67;1.33;;;;;;;;6180897;23;45454;-92
2022/09/17 00:23:42;;;;;;;;;1.00;1.00;;;;;;;;6179675;23;45260;-92
2022/09/17 00:26:08;;;;;;;;;1.00;1.00;;;;;;;;6179207;23;47421;-90
2022/09/17 00:28:33;;;;;;;;;2.00;2.00;;;;;;;;6179117;23;45800;-91
2022/09/17 00:30:58;;;;;;;;;2.00;2.00;;;;;;;;6180152;23;45643;-91
2022/09/17 00:33:23;;;;;;;;;1.33;1.00;;;;;;;;6182702;23;45401;-92
2022/09/17 00:35:59;;;;;;;;;2.00;2.00;;;;;;;;6189960;23;45386;-92
2022/09/17 00:38:24;;;;;;;;;3.33;2.00;;;;;;;;6187989;23;45677;-92
2022/09/17 00:40:49;;;;;;;;;2.00;2.00;;;;;;;;6187734;23;45292;-92
2022/09/17 00:43:31;;;;;;;;;2.00;2.00;;;;;;;;6186959;23;45437;-91
2022/09/17 00:45:57;;;;;;;;;5.00;2.67;;;;;;;;6189615;23;47316;-92
2022/09/17 00:48:22;;;;;;;;;3.00;1.00;;;;;;;;6190537;23;45366;-92
2022/09/17 00:50:47;;;;;;;;;2.67;2.67;;;;;;;;6192977;23;45126;-93
2022/09/17 00:53:14;;;;;;;;;2.33;2.00;;;;;;;;6191821;23;45495;-92
2022/09/17 00:55:42;;;;;;;;;1.67;1.67;;;;;;;;6182418;23;47480;-91
2022/09/17 00:58:09;;;;;;;;;2.67;1.00;;;;;;;;6179981;23;45417;-92
2022/09/17 01:00:34;;;;;;;;;1.67;1.00;;;;;;;;6181410;23;45255;-92
2022/09/17 01:02:59;;;;;;;;;3.00;1.00;;;;;;;;6179944;23;45350;-91
2022/09/17 01:05:48;;;;;;;;;1.00;1.00;;;;;;;;6180613;23;47917;-92
2022/09/17 01:08:14;;;;;;;;;1.00;1.00;;;;;;;;6181368;23;45419;-92
2022/09/17 01:10:42;;;;;;;;;2.00;1.00;;;;;;;;6181229;23;45422;-92
2022/09/17 01:13:07;;;;;;;;;0.00;0.00;;;;;;;;6181932;23;45287;-92
2022/09/17 01:15:47;;;;;;;;;1.00;1.00;;;;;;;;6180587;23;47899;-93
2022/09/17 01:18:31;;;;;;;;;3.00;2.00;;;;;;;;6180932;23;45492;-92
2022/09/17 01:21:15;;;;;;;;;2.00;2.00;;;;;;;;6180765;23;45350;-91
2022/09/17 01:23:55;;;;;;;;;2.00;1.00;;;;;;;;6182847;23;45260;-91
2022/09/17 01:26:23;;;;;;;;;1.33;1.33;;;;;;;;6180023;23;47082;-92
2022/09/17 01:28:51;;;;;;;;;2.00;1.00;;;;;;;;6180346;23;45248;-93
2022/09/17 01:31:20;;;;;;;;;2.00;1.00;;;;;;;;6180109;23;45442;-92
2022/09/17 01:34:00;;;;;;;;;1.00;1.00;;;;;;;;6182253;23;45391;-92
2022/09/17 01:36:36;;;;;;;;;1.00;1.00;;;;;;;;6180595;23;48047;-92
2022/09/17 01:39:06;;;;;;;;;1.33;1.00;;;;;;;;6180127;23;45196;-90
2022/09/17 01:41:36;;;;;;;;;0.33;0.00;;;;;;;;6179495;23;45342;-92
2022/09/17 01:44:05;;;;;;;;;2.00;2.00;;;;;;;;6205814;22;45366;-91
2022/09/17 01:46:37;;;;;;;;;1.00;1.00;;;;;;;;6179986;23;48462;-91
2022/09/17 01:49:04;;;;;;;;;3.33;2.00;;;;;;;;6180233;23;45645;-92
2022/09/17 01:51:35;;;;;;;;;3.33;2.00;;;;;;;;6180264;23;45434;-91
2022/09/17 01:54:06;;;;;;;;;1.00;1.00;;;;;;;;6180467;23;45410;-92
2022/09/17 01:56:37;;;;;;;;;2.00;1.00;;;;;;;;6180108;23;48215;-91
2022/09/17 01:59:08;;;;;;;;;3.00;1.67;;;;;;;;6179941;23;45262;-91
2022/09/17 02:01:37;;;;;;;;;1.33;1.33;;;;;;;;6180008;23;45279;-92
2022/09/17 02:04:05;;;;;;;;;1.67;1.33;;;;;;;;6206640;22;45387;-92
2022/09/17 02:06:34;;;;;;;;;2.00;2.00;;;;;;;;6185663;23;48691;-93
2022/09/17 02:09:02;;;;;;;;;2.00;2.00;;;;;;;;6188148;23;45424;-91
2022/09/17 02:11:27;;;;;;;;;2.00;2.00;;;;;;;;6188062;23;45366;-93
2022/09/17 02:14:00;;;;;;;;;3.33;2.00;;;;;;;;6187960;23;45581;-92
2022/09/17 02:16:25;;;;;;;;;1.00;1.00;;;;;;;;6187610;23;47013;-92
2022/09/17 02:19:00;;;;;;;;;1.00;1.00;;;;;;;;6188968;23;45200;-93
2022/09/17 02:21:37;;;;;;;;;1.00;1.00;;;;;;;;6189281;23;45301;-92
2022/09/17 02:24:02;;;;;;;;;4.00;1.00;;;;;;;;6188818;23;45260;-92
2022/09/17 02:26:28;;;;;;;;;1.00;1.00;;;;;;;;6187722;23;47113;-91
2022/09/17 02:28:56;;;;;;;;;0.00;0.00;;;;;;;;6188630;23;46061;-91
2022/09/17 02:31:21;;;;;;;;;1.00;1.00;;;;;;;;6181185;23;45247;-92
2022/09/17 02:33:47;;;;;;;;;0.00;0.00;;;;;;;;6179994;23;45447;-91
2022/09/17 02:36:13;;;;;;;;;2.00;2.00;;;;;;;;6182017;23;46262;-91
2022/09/17 02:38:40;;;;;;;;;2.00;2.00;;;;;;;;6179826;23;45283;-93
2022/09/17 02:41:13;;;;;;;;;0.00;0.00;;;;;;;;6179892;23;45194;-92
2022/09/17 02:43:48;;;;;;;;;1.00;1.00;;;;;;;;6179668;23;45212;-91
2022/09/17 02:46:28;;;;;;;;;0.00;0.00;;;;;;;;6179643;23;47551;-92
2022/09/17 02:49:12;;;;;;;;;1.33;1.33;;;;;;;;6180129;23;45804;-93
2022/09/17 02:51:48;;;;;;;;;2.00;2.00;;;;;;;;6179310;23;45381;-92
2022/09/17 02:54:14;;;;;;;;;1.00;1.00;;;;;;;;6205457;22;45307;-92
2022/09/17 02:56:39;;;;;;;;;2.00;2.00;;;;;;;;6179389;23;47830;-92
2022/09/17 02:59:13;;;;;;;;;1.00;1.00;;;;;;;;6179760;23;45341;-92
2022/09/17 03:01:43;;;;;;;;;1.33;1.00;;;;;;;;6179388;23;45320;-92
2022/09/17 03:04:09;;;;;;;;;1.67;1.00;;;;;;;;6182333;23;45426;-92
2022/09/17 03:06:35;;;;;;;;;0.67;0.67;;;;;;;;6179896;23;48180;-92
2022/09/17 03:09:00;;;;;;;;;2.33;0.00;;;;;;;;6205015;22;45303;-92
2022/09/17 03:11:25;;;;;;;;;0.00;0.00;;;;;;;;6180314;23;45336;-91
2022/09/17 03:13:51;;;;;;;;;1.00;1.00;;;;;;;;6179902;23;45446;-92
2022/09/17 03:16:16;;;;;;;;;3.00;1.00;;;;;;;;6181264;23;46093;-92
2022/09/17 03:18:42;;;;;;;;;1.00;1.00;;;;;;;;6180442;23;45614;-91
2022/09/17 03:21:07;;;;;;;;;1.00;1.00;;;;;;;;6180162;23;45392;-92
2022/09/17 03:23:32;;;;;;;;;4.33;2.00;;;;;;;;6179563;23;45179;-92
2022/09/17 03:25:58;;;;;;;;;1.00;1.00;;;;;;;;6180067;23;46983;-92
2022/09/17 03:28:25;;;;;;;;;3.33;2.00;;;;;;;;6179749;23;45418;-93
2022/09/17 03:30:51;;;;;;;;;0.67;0.67;;;;;;;;6180218;23;45859;-92
2022/09/17 03:33:16;;;;;;;;;3.00;1.33;;;;;;;;6179785;23;45429;-92
2022/09/17 03:35:42;;;;;;;;;1.00;1.00;;;;;;;;6205730;22;47091;-92
2022/09/17 03:38:07;;;;;;;;;1.33;0.33;;;;;;;;6187142;23;45440;-92
2022/09/17 03:40:32;;;;;;;;;1.00;1.00;;;;;;;;6186966;23;45433;-92
2022/09/17 03:42:57;;;;;;;;;1.67;1.67;;;;;;;;6186822;23;45287;-92
2022/09/17 03:45:23;;;;;;;;;1.00;1.00;;;;;;;;6186858;23;47117;-92
2022/09/17 03:47:48;;;;;;;;;1.00;1.00;;;;;;;;6188014;23;45247;-92
2022/09/17 03:50:13;;;;;;;;;2.00;0.00;;;;;;;;6189882;23;45225;-92
2022/09/17 03:52:39;;;;;;;;;3.00;1.33;;;;;;;;6188797;23;45542;-92
2022/09/17 03:55:04;;;;;;;;;1.00;1.00;;;;;;;;6189217;23;47512;-92
2022/09/17 03:57:29;;;;;;;;;1.00;1.00;;;;;;;;6183308;23;45363;-91
2022/09/17 03:59:55;;;;;;;;;0.00;0.00;;;;;;;;6179860;23;45201;-92
2022/09/17 04:02:20;;;;;;;;;3.00;1.00;;;;;;;;6180276;23;45230;-91
2022/09/17 04:04:45;;;;;;;;;2.33;1.00;;;;;;;;6184891;23;45363;-93
2022/09/17 04:07:10;;;;;;;;;1.00;1.00;;;;;;;;6182971;23;45315;-92
2022/09/17 04:09:35;;;;;;;;;1.00;1.00;;;;;;;;6183216;23;45353;-94
2022/09/17 04:12:01;;;;;;;;;0.67;0.67;;;;;;;;6184365;23;45336;-91
2022/09/17 04:14:26;;;;;;;;;1.67;1.67;;;;;;;;6182042;23;48481;-92
2022/09/17 04:16:51;;;;;;;;;1.00;1.00;;;;;;;;6182831;23;45405;-93
2022/09/17 04:19:16;;;;;;;;;1.00;0.00;;;;;;;;6208116;22;45386;-92
2022/09/17 04:21:42;;;;;;;;;1.00;1.00;;;;;;;;6185350;23;45296;-93
2022/09/17 04:24:07;;;;;;;;;1.00;1.00;;;;;;;;6182694;23;47282;-91
2022/09/17 04:26:33;;;;;;;;;1.33;1.00;;;;;;;;6182768;23;45315;-92
2022/09/17 04:28:58;;;;;;;;;1.33;1.33;;;;;;;;6182495;23;45616;-92
2022/09/17 04:31:25;;;;;;;;;3.67;2.00;;;;;;;;6182337;23;45497;-91
2022/09/17 04:33:50;;;;;;;;;1.33;1.33;;;;;;;;6181948;23;48062;-92
2022/09/17 04:36:16;;;;;;;;;0.67;0.67;;;;;;;;6182356;23;45379;-92
2022/09/17 04:38:41;;;;;;;;;1.00;1.00;;;;;;;;6182562;23;45488;-91
2022/09/17 04:41:06;;;;;;;;;3.00;3.00;;;;;;;;6181847;23;45515;-91
2022/09/17 04:43:32;;;;;;;;;1.00;1.00;;;;;;;;6181866;23;48085;-90
2022/09/17 04:45:57;;;;;;;;;1.00;1.00;;;;;;;;6182475;23;45902;-90
2022/09/17 04:48:22;;;;;;;;;3.00;3.00;;;;;;;;6181736;23;45465;-92
2022/09/17 04:50:47;;;;;;;;;2.00;2.00;;;;;;;;6182577;23;45395;-91
2022/09/17 04:53:13;;;;;;;;;4.00;2.33;;;;;;;;6182122;23;46992;-91
2022/09/17 04:55:38;;;;;;;;;2.67;2.67;;;;;;;;6182578;23;45310;-92
2022/09/17 04:58:03;;;;;;;;;3.00;3.00;;;;;;;;6182378;23;45287;-91
2022/09/17 05:00:29;;;;;;;;;0.00;0.00;;;;;;;;6207953;22;45403;-91
2022/09/17 05:02:54;;;;;;;;;2.67;2.00;;;;;;;;6181554;23;48121;-91
2022/09/17 05:05:20;;;;;;;;;2.00;2.00;;;;;;;;6182719;23;45234;-91
2022/09/17 05:07:45;;;;;;;;;1.67;1.67;;;;;;;;6213462;22;45323;-92
2022/09/17 05:10:12;;;;;;;;;1.00;1.00;;;;;;;;6189871;23;45397;-92
2022/09/17 05:12:37;;;;;;;;;2.67;2.67;;;;;;;;6188813;23;48578;-92
2022/09/17 05:15:03;;;;;;;;;3.00;2.00;;;;;;;;6187334;23;45244;-91
2022/09/17 05:17:28;;;;;;;;;1.67;1.33;;;;;;;;6188755;23;45445;-92
2022/09/17 05:19:53;;;;;;;;;2.00;1.33;;;;;;;;6190417;23;45309;-91
2022/09/17 05:22:19;;;;;;;;;2.00;2.00;;;;;;;;6190004;23;48293;-90
2022/09/17 05:24:45;;;;;;;;;2.33;2.33;;;;;;;;6189930;23;45945;-91
2022/09/17 05:27:10;;;;;;;;;2.33;2.00;;;;;;;;6184993;23;45516;-91
2022/09/17 05:29:35;;;;;;;;;3.33;3.00;;;;;;;;6183467;23;45355;-91
2022/09/17 05:32:01;;;;;;;;;4.00;3.00;;;;;;;;6180882;23;47030;-91
2022/09/17 05:34:26;;;;;;;;;2.67;1.67;;;;;;;;6180642;23;45470;-91
2022/09/17 05:36:51;;;;;;;;;1.00;1.00;;;;;;;;6181636;23;45367;-92
2022/09/17 05:39:16;;;;;;;;;1.00;1.00;;;;;;;;6181119;23;45272;-91
2022/09/17 05:41:42;;;;;;;;;2.00;2.00;;;;;;;;6181191;23;47127;-92
2022/09/17 05:44:07;;;;;;;;;4.00;3.00;;;;;;;;6180201;23;45374;-91
2022/09/17 05:46:32;;;;;;;;;2.00;2.00;;;;;;;;6180941;23;45421;-92
2022/09/17 05:48:57;;;;;;;;;2.67;1.67;;;;;;;;6181129;23;45315;-91
2022/09/17 05:51:23;;;;;;;;;3.00;3.00;;;;;;;;6181187;23;48084;-92
2022/09/17 05:53:48;;;;;;;;;2.33;2.33;;;;;;;;6180772;23;45323;-92
2022/09/17 05:56:14;;;;;;;;;2.00;1.67;;;;;;;;6181257;23;45258;-92
2022/09/17 05:58:39;;;;;;;;;2.00;2.00;;;;;;;;6180751;23;45296;-92
2022/09/17 06:01:04;;;;;;;;;2.33;2.33;;;;;;;;6181706;23;46032;-91
2022/09/17 06:03:29;;;;;;;;;2.67;2.33;;;;;;;;6180457;23;45413;-91
2022/09/17 06:05:57;;;;;;;;;5.00;2.00;;;;;;;;6180854;23;45341;-93
2022/09/17 06:08:22;;;;;;;;;3.33;2.00;;;;;;;;6180669;23;45454;-92
2022/09/17 06:10:48;;;;;;;;;4.00;3.00;;;;;;;;6180306;23;48294;-92
2022/09/17 06:13:13;;;;;;;;;4.00;3.00;;;;;;;;6180050;23;45326;-92
2022/09/17 06:15:38;;;;;;;;;2.00;2.00;;;;;;;;6205151;22;45862;-91
2022/09/17 06:18:04;;;;;;;;;2.33;2.00;;;;;;;;6182034;23;45294;-92
2022/09/17 06:20:29;;;;;;;;;3.00;3.00;;;;;;;;6180234;23;47888;-93
2022/09/17 06:22:55;;;;;;;;;2.33;2.00;;;;;;;;6180188;23;45330;-91
2022/09/17 06:25:22;;;;;;;;;2.00;2.00;;;;;;;;6180000;23;45797;-93
2022/09/17 06:27:47;;;;;;;;;2.00;2.00;;;;;;;;6177486;23;45472;-87
2022/09/17 06:30:12;;;;;;;;;2.00;2.00;;;;;;;;6179245;23;46093;-88
2022/09/17 06:32:38;;;;;;;;;2.00;2.00;;;;;;;;6180396;23;45440;-87
2022/09/17 06:35:03;;;;;;;;;4.00;3.00;;;;;;;;6180901;23;45405;-87
2022/09/17 06:37:29;;;;;;;;;2.00;2.00;;;;;;;;6180796;23;45323;-88
2022/09/17 06:39:54;;;;;;;;;1.00;1.00;;;;;;;;6180428;23;46019;-88
2022/09/17 06:42:20;;;;;;;;;2.33;2.33;;;;;;;;6179936;23;45538;-88
2022/09/17 06:44:45;;;;;;;;;3.00;1.67;;;;;;;;6179942;23;45342;-88
2022/09/17 06:47:10;;;;;;;;;0.00;0.00;;;;;;;;6180490;23;45202;-88
2022/09/17 06:49:35;;;;;;;;;3.67;2.00;;;;;;;;6204158;22;46790;-87
2022/09/17 06:52:01;;;;;;;;;2.00;1.00;;;;;;;;6179050;23;45247;-89
2022/09/17 06:54:26;;;;;;;;;1.00;1.00;;;;;;;;6178311;23;45774;-91
2022/09/17 06:56:51;;;;;;;;;3.00;1.67;;;;;;;;6204117;22;45325;-89
2022/09/17 06:59:17;;;;;;;;;1.67;1.67;;;;;;;;6177836;23;47888;-89
2022/09/17 07:01:42;;;;;;;;;1.00;0.67;;;;;;;;6203472;22;45369;-89
2022/09/17 07:04:07;;;;;;;;;1.67;1.33;;;;;;;;6203855;22;45681;-87
2022/09/17 07:06:33;;;;;;;;;3.00;2.00;;;;;;;;6180618;23;45339;-88
2022/09/17 07:08:58;;;;;;;;;4.33;2.00;;;;;;;;6178392;23;48016;-87
2022/09/17 07:11:23;;;;;;;;;2.33;1.33;;;;;;;;6203555;22;45551;-89
2022/09/17 07:13:48;;;;;;;;;1.67;1.67;;;;;;;;6180505;23;45298;-90
2022/09/17 07:16:14;;;;;;;;;1.67;1.33;;;;;;;;6177581;23;45617;-88
2022/09/17 07:18:39;;;;;;;;;2.00;2.00;;;;;;;;6200909;22;48086;-88
2022/09/17 07:21:05;;;;;;;;;2.00;1.67;;;;;;;;6179277;23;45429;-87
2022/09/17 07:23:31;;;;;;;;;1.33;1.00;;;;;;;;6180984;23;45324;-89
2022/09/17 07:25:57;;;;;;;;;0.00;0.00;;;;;;;;6179507;23;45497;-88
2022/09/17 07:28:23;;;;;;;;;2.00;2.00;;;;;;;;6180293;23;45389;-87
2022/09/17 07:30:49;;;;;;;;;0.00;0.00;;;;;;;;6204375;22;45333;-89
2022/09/17 07:33:15;;;;;;;;;0.00;0.00;;;;;;;;6178976;23;45254;-87
2022/09/17 07:35:40;;;;;;;;;1.00;1.00;;;;;;;;6181184;23;45405;-88
2022/09/17 07:38:05;;;;;;;;;0.00;0.00;;;;;;;;6181023;23;45373;-88
2022/09/17 07:40:31;;;;;;;;;0.00;0.00;;;;;;;;6180427;23;45710;-88
2022/09/17 07:42:57;;;;;;;;;1.00;1.00;;;;;;;;6178474;23;45233;-89
2022/09/17 07:45:22;;;;;;;;;0.00;0.00;;;;;;;;6179514;23;45457;-88
2022/09/17 07:47:47;;;;;;;;;1.00;0.00;;;;;;;;6176751;23;47244;-88
2022/09/17 07:50:12;;;;;;;;;0.00;0.00;;;;;;;;6179493;23;45432;-88
2022/09/17 07:52:44;;;;;;;;;0.00;0.00;;;;;;;;6200223;22;45507;-88
2022/09/17 07:55:09;;;;;;;;;0.33;0.00;;;;;;;;6176752;22;45278;-88
2022/09/17 07:57:34;;;;;;;;;0.00;0.00;;;;;;;;6177091;22;46719;-88
2022/09/17 07:59:59;;;;;;;;;0.00;0.00;;;;;;;;6179388;23;45653;-89
2022/09/17 08:02:24;;;;;;;;;0.00;0.00;;;;;;;;6179593;23;45390;-88
2022/09/17 08:04:49;;;;;;;;;2.00;0.00;;;;;;;;6178982;23;45732;-88
2022/09/17 08:07:15;;;;;;;;;2.00;1.00;;;;;;;;6179772;23;45727;-89
2022/09/17 08:09:40;;;;;;;;;0.67;0.67;;;;;;;;6177320;23;46559;-88
2022/09/17 08:12:05;;;;;;;;;0.00;0.00;;;;;;;;6178692;22;45520;-88
2022/09/17 08:14:30;;;;;;;;;0.33;0.33;;;;;;;;6201756;22;45541;-88
2022/09/17 08:16:56;;;;;;;;;0.67;0.33;;;;;;;;6179209;23;46124;-86
2022/09/17 08:19:21;;;;;;;;;1.00;1.00;;;;;;;;6203082;22;45482;-88
2022/09/17 08:21:46;;;;;;;;;3.00;0.00;;;;;;;;6203202;22;45541;-88
2022/09/17 08:24:11;;;;;;;;;0.00;0.00;;;;;;;;6178127;23;45734;-88
2022/09/17 08:26:37;;;;;;;;;2.00;0.33;;;;;;;;6202466;22;47003;-87
2022/09/17 08:29:03;;;;;;;;;2.67;0.67;;;;;;;;6178874;23;45240;-88
2022/09/17 08:31:29;;;;;;;;;1.00;1.00;;;;;;;;6179322;23;45655;-88
2022/09/17 08:33:54;;;;;;;;;0.00;0.00;;;;;;;;6202859;22;45494;-88
2022/09/17 08:36:21;;;;;;;;;1.00;1.00;;;;;;;;6179010;23;45342;-89
2022/09/17 08:38:48;;;;;;;;;0.00;0.00;;;;;;;;6202811;22;45392;-87
2022/09/17 08:41:21;;;;;;;;;1.33;0.00;;;;;;;;6176971;23;45470;-88
2022/09/17 08:43:54;;;;;;;;;0.67;0.67;;;;;;;;6178821;23;45582;-88
2022/09/17 08:46:20;;;;;;;;;2.00;0.67;;;;;;;;6201644;22;47331;-88
2022/09/17 08:48:55;;;;;;;;;1.33;0.00;;;;;;;;6202442;22;45507;-88
2022/09/17 08:51:32;;;;;;;;;1.00;0.00;;;;;;;;6179009;23;45259;-88
2022/09/17 08:54:04;;;;;;;;;0.00;0.00;;;;;;;;6204660;22;45528;-88
2022/09/17 08:56:32;;;;;;;;;0.67;0.00;;;;;;;;6179949;23;45458;-87
2022/09/17 08:59:16;;;;;;;;;2.00;0.00;;;;;;;;6177658;23;45306;-87
2022/09/17 09:01:51;;;;;;;;;0.00;0.00;;;;;;;;6180134;23;45328;-87
2022/09/17 09:04:35;;;;;;;;;1.67;1.00;;;;;;;;6180812;23;45345;-88
2022/09/17 09:07:07;;;;;;;;;2.00;2.00;;;;;;;;6178589;23;47781;-88
2022/09/17 09:09:49;;;;;;;;;0.00;0.00;;;;;;;;6178340;23;45249;-88
2022/09/17 09:12:23;;;;;;;;;0.00;0.00;;;;;;;;6180189;23;45329;-88
2022/09/17 09:14:51;;;;;;;;;0.00;0.00;;;;;;;;6171341;23;45390;-88
2022/09/17 09:17:17;;;;;;;;;1.67;1.00;;;;;;;;6182460;23;46561;-88
2022/09/17 09:19:44;;;;;;;;;2.00;0.00;;;;;;;;6180420;23;45259;-88
2022/09/17 09:22:11;;;;;;;;;1.00;1.00;;;;;;;;6180898;23;45792;-88
2022/09/17 09:24:44;;;;;;;;;1.00;0.33;;;;;;;;6180135;23;45744;-88
2022/09/17 09:27:17;;;;;;;;;1.33;0.67;;;;;;;;6180402;23;46390;-88
2022/09/17 09:30:01;;;;;;;;;0.00;0.00;;;;;;;;6177571;23;45624;-88
2022/09/17 09:32:44;;;;;;;;;0.00;0.00;;;;;;;;6180435;23;45323;-89
2022/09/17 09:35:17;;;;;;;;;1.00;1.00;;;;;;;;6180272;23;45383;-91
2022/09/17 09:37:45;;;;;;;;;2.00;0.00;;;;;;;;6181898;22;46505;-94
2022/09/17 09:40:21;;;;;;;;;0.00;0.00;;;;;;;;6183388;23;45250;-93
2022/09/17 09:42:48;;;;;;;;;0.00;0.00;;;;;;;;6185527;23;45344;-93
2022/09/17 09:45:22;;;;;;;;;0.00;0.00;;;;;;;;6186650;23;44866;-95
2022/09/17 09:48:07;;;;;;;;;1.00;0.00;;;;;;;;6178847;23;47249;-91
2022/09/17 09:50:39;;;;;;;;;0.00;0.00;;;;;;;;6204561;22;45293;-93
2022/09/17 09:53:13;;;;;;;;;1.67;1.00;;;;;;;;6187979;23;45285;-93
2022/09/17 09:55:49;;;;;;;;;0.00;0.00;;;;;;;;6180795;23;45449;-90
2022/09/17 09:58:26;;;;;;;;;1.00;1.00;;;;;;;;6177126;23;46645;-88
2022/09/17 10:00:51;;;;;;;;;0.00;0.00;;;;;;;;6179013;23;45387;-93
2022/09/17 10:03:30;;;;;;;;;1.00;1.00;;;;;;;;6180702;23;45353;-91
2022/09/17 10:06:00;;;;;;;;;1.00;1.00;;;;;;;;6181337;23;45307;-89
2022/09/17 10:08:27;;;;;;;;;2.33;0.67;;;;;;;;6178419;23;47394;-89
2022/09/17 10:11:00;;;;;;;;;5.00;3.67;;;;;;;;6177512;23;45284;-88
2022/09/17 10:13:26;;;;;;;;;1.00;1.00;;;;;;;;6178341;23;45860;-89
2022/09/17 10:15:52;;;;;;;;;3.00;1.00;;;;;;;;6180021;23;45307;-90
2022/09/17 10:18:18;;;;;;;;;0.00;0.00;;;;;;;;6201468;22;47498;-89
2022/09/17 10:20:54;;;;;;;;;1.00;1.00;;;;;;;;6180127;23;45341;-89
2022/09/17 10:23:20;;;;;;;;;0.67;0.00;;;;;;;;6178125;23;45402;-90
2022/09/17 10:25:46;;;;;;;;;0.00;0.00;;;;;;;;6203711;22;45688;-89
2022/09/17 10:28:30;;;;;;;;;4.00;2.00;;;;;;;;6202865;22;47796;-87
2022/09/17 10:30:57;;;;;;;;;1.67;1.67;;;;;;;;6177883;23;45345;-90
2022/09/17 10:33:24;;;;;;;;;2.00;0.67;;;;;;;;6186363;23;45640;-91
2022/09/17 10:35:57;;;;;;;;;0.67;0.67;;;;;;;;6182405;23;45310;-89
2022/09/17 10:38:26;;;;;;;;;1.00;1.00;;;;;;;;6178734;23;47668;-89
2022/09/17 10:40:51;;;;;;;;;3.00;1.00;;;;;;;;6180434;23;46094;-93
2022/09/17 10:43:19;;;;;;;;;0.00;0.00;;;;;;;;6180761;23;45320;-93
2022/09/17 10:45:55;;;;;;;;;2.00;0.33;;;;;;;;6182272;23;45268;-90
2022/09/17 10:48:21;;;;;;;;;1.00;1.00;;;;;;;;6180897;23;45358;-90
2022/09/17 10:50:51;;;;;;;;;3.00;1.67;;;;;;;;6179145;23;45547;-91
2022/09/17 10:53:18;;;;;;;;;0.00;0.00;;;;;;;;6180991;23;45359;-92
2022/09/17 10:56:03;;;;;;;;;2.00;1.00;;;;;;;;6179735;23;45398;-92
2022/09/17 10:58:38;;;;;;;;;1.00;1.00;;;;;;;;6205969;22;47415;-94
2022/09/17 11:01:22;;;;;;;;;1.67;1.67;;;;;;;;6180097;23;45226;-92
2022/09/17 11:04:08;;;;;;;;;5.67;1.67;;;;;;;;6186960;23;45667;-95
2022/09/17 11:06:36;;;;;;;;;0.67;0.67;;;;;;;;6189038;23;45340;-95
2022/09/17 11:09:08;;;;;;;;;5.67;3.00;;;;;;;;6190866;23;46193;-95
2022/09/17 11:11:33;;;;;;;;;1.00;0.00;;;;;;;;6192801;23;45417;-91
2022/09/17 11:14:19;;;;;;;;;0.75;0.00;;;;;;;;6190117;23;45333;-94
2022/09/17 11:16:50;;;;;;;;;2.00;1.00;;;;;;;;6184029;23;45370;-92
2022/09/17 11:19:21;;;;;;;;;1.00;1.00;;;;;;;;6184823;23;45371;-96
2022/09/17 11:22:05;;;;;;;;;1.00;1.00;;;;;;;;6185452;23;45292;-94
2022/09/17 11:24:47;;;;;;;;;1.00;1.00;;;;;;;;6185949;23;45322;-93
2022/09/17 11:27:35;;;;;;;;;0.00;0.00;;;;;;;;6179300;23;45612;-88
2022/09/17 11:30:03;;;;;;;;;1.00;1.00;;;;;;;;6176876;23;48157;-89
2022/09/17 11:32:31;;;;;;;;;1.67;1.00;;;;;;;;6179836;23;45333;-89
2022/09/17 11:35:03;;;;;;;;;2.00;1.00;;;;;;;;6179846;23;45480;-92
2022/09/17 11:37:34;;;;;;;;;0.00;0.00;;;;;;;;6178693;23;45438;-91
2022/09/17 11:40:03;;;;;;;;;0.00;0.00;;;;;;;;6180073;23;46452;-92
2022/09/17 11:42:31;;;;;;;;;1.67;1.67;;;;;;;;6177525;23;45314;-90
2022/09/17 11:45:03;;;;;;;;;1.00;1.00;;;;;;;;6179585;23;45318;-90
2022/09/17 11:47:36;;;;;;;;;0.67;0.67;;;;;;;;6177472;23;45368;-91
2022/09/17 11:50:08;;;;;;;;;0.67;0.67;;;;;;;;6177122;23;47959;-90
2022/09/17 11:52:42;;;;;;;;;0.00;0.00;;;;;;;;6178466;23;45267;-91
2022/09/17 11:55:20;;;;;;;;;1.00;1.00;;;;;;;;6178748;23;45412;-91
2022/09/17 11:57:46;;;;;;;;;0.00;0.00;;;;;;;;6179700;23;45322;-90
2022/09/17 12:00:16;;;;;;;;;0.00;0.00;;;;;;;;6177191;23;47651;-89
2022/09/17 12:03:00;;;;;;;;;1.00;1.00;;;;;;;;6180192;23;45314;-92
2022/09/17 12:05:38;;;;;;;;;0.67;0.67;;;;;;;;6178787;23;45280;-90
2022/09/17 12:08:21;;;;;;;;;0.00;0.00;;;;;;;;6178667;23;45475;-92
2022/09/17 12:10:46;;;;;;;;;2.67;1.00;;;;;;;;6180315;23;46515;-91
2022/09/17 12:13:18;;;;;;;;;3.00;1.00;;;;;;;;6177051;23;45259;-90
2022/09/17 12:15:48;;;;;;;;;1.00;0.00;;;;;;;;6178668;23;45387;-91
2022/09/17 12:18:23;;;;;;;;;0.00;0.00;;;;;;;;6176312;23;45438;-90
2022/09/17 12:20:50;;;;;;;;;0.00;0.00;;;;;;;;6179636;23;46612;-90
2022/09/17 12:23:20;;;;;;;;;0.00;0.00;;;;;;;;6179338;23;45767;-89
2022/09/17 12:25:59;;;;;;;;;0.00;0.00;;;;;;;;6179040;23;45246;-90
2022/09/17 12:28:34;;;;;;;;;1.00;0.00;;;;;;;;6178016;23;45915;-90
2022/09/17 12:31:04;;;;;;;;;1.00;0.00;;;;;;;;6178790;23;47441;-89
2022/09/17 12:34:02;;;;;;;;;0.00;0.00;;;;;;;;6178396;23;45240;-90
2022/09/17 12:36:35;;;;;;;;;0.00;0.00;;;;;;;;6087957;23;45736;-90
2022/09/17 12:39:39;;;;;;;;;0.00;0.00;;;;;;;;6088833;23;45479;-88
2022/09/17 12:42:25;;;;;;;;;0.00;0.00;;;;;;;;5973221;23;46609;-89
2022/09/17 12:45:08;;;;;;;;;0.00;0.00;;;;;;;;5972462;23;45971;-90
2022/09/17 12:47:36;;;;;;;;;0.00;0.00;;;;;;;;5966524;23;45387;-91
2022/09/17 12:50:13;;;;;;;;;0.00;0.00;;;;;;;;5973622;23;45414;-91
2022/09/17 12:52:48;;;;;;;;;0.00;0.00;;;;;;;;5972230;23;46947;-91
2022/09/17 12:55:16;;;;;;;;;0.00;0.00;;;;;;;;5972361;23;45834;-92
2022/09/17 12:58:00;;;;;;;;;0.00;0.00;;;;;;;;5971658;23;45328;-90
2022/09/17 13:00:26;;;;;;;;;0.00;0.00;;;;;;;;5972489;23;45574;-90
2022/09/17 13:03:12;;;;;;;;;0.00;0.00;;;;;;;;5971284;23;46893;-91
2022/09/17 13:05:55;;;;;;;;;0.00;0.00;;;;;;;;5972006;23;45544;-89
2022/09/17 13:08:39;;;;;;;;;0.00;0.00;;;;;;;;5972551;23;45427;-90
2022/09/17 13:11:13;;;;;;;;;0.00;0.00;;;;;;;;5980984;23;45657;-89
2022/09/17 13:13:41;;;;;;;;;0.00;0.00;;;;;;;;6154601;23;47269;-89
2022/09/17 13:16:15;;;;;;;;;0.00;0.00;;;;;;;;6177021;23;45440;-89
2022/09/17 13:18:59;;;;;;;;;0.00;0.00;;;;;;;;6179842;23;45620;-89
2022/09/17 13:21:40;;;;;;;;;1.00;0.00;;;;;;;;6179545;23;45347;-89
2022/09/17 13:24:16;;;;;;;;;0.00;0.00;;;;;;;;6180363;23;46442;-89
2022/09/17 13:26:44;;;;;;;;;0.00;0.00;;;;;;;;6179501;23;45287;-92
2022/09/17 13:29:10;;;;;;;;;0.00;0.00;;;;;;;;6177189;23;45405;-90
2022/09/17 13:31:35;;;;;;;;;0.00;0.00;;;;;;;;6178728;23;45319;-90
2022/09/17 13:34:01;;;;;;;;;0.00;0.00;;;;;;;;6177725;23;47318;-89
2022/09/17 13:36:35;;;;;;;;;0.00;0.00;;;;;;;;6202445;22;45640;-89
2022/09/17 13:39:01;;;;;;;;;0.00;0.00;;;;;;;;6177521;23;45360;-90
2022/09/17 13:41:28;;;;;;;;;0.00;0.00;;;;;;;;6177565;23;45565;-89
2022/09/17 13:43:56;;;;;;;;;0.00;0.00;;;;;;;;6179239;23;45673;-89
2022/09/17 13:46:22;;;;;;;;;0.00;0.00;;;;;;;;6201856;22;45300;-89
2022/09/17 13:48:49;;;;;;;;;0.00;0.00;;;;;;;;6177943;23;45350;-89
2022/09/17 13:51:29;;;;;;;;;0.00;0.00;;;;;;;;6180127;23;45302;-89
2022/09/17 13:53:56;;;;;;;;;0.00;0.00;;;;;;;;6177965;23;47564;-90
2022/09/17 13:56:30;;;;;;;;;0.00;0.00;;;;;;;;6202558;22;45346;-90
2022/09/17 13:59:04;;;;;;;;;0.00;0.00;;;;;;;;6179088;23;45308;-89
2022/09/17 14:01:47;;;;;;;;;0.00;0.00;;;;;;;;6178917;23;45359;-89
2022/09/17 14:04:31;;;;;;;;;0.00;0.00;;;;;;;;6180004;23;45551;-89
2022/09/17 14:06:58;;;;;;;;;0.00;0.00;;;;;;;;6177206;23;45500;-88
2022/09/17 14:09:42;;;;;;;;;0.00;0.00;;;;;;;;6180180;23;45404;-88
2022/09/17 14:12:27;;;;;;;;;0.00;0.00;;;;;;;;6177473;23;45337;-89
2022/09/17 14:14:52;;;;;;;;;0.00;0.00;;;;;;;;6176049;23;48403;-89
2022/09/17 14:17:37;;;;;;;;;0.00;0.00;;;;;;;;6202330;22;45480;-89
2022/09/17 14:20:04;;;;;;;;;0.00;0.00;;;;;;;;6179634;23;45303;-90
2022/09/17 14:22:29;;;;;;;;;0.00;0.00;;;;;;;;6179328;23;45668;-89
2022/09/17 14:24:55;;;;;;;;;0.00;0.00;;;;;;;;6179493;23;46468;-89
2022/09/17 14:27:26;;;;;;;;;0.00;0.00;;;;;;;;6179037;23;45323;-90
2022/09/17 14:30:06;;;;;;;;;0.00;0.00;;;;;;;;6178380;23;45316;-89
2022/09/17 14:32:50;;;;;;;;;0.00;0.00;;;;;;;;6178620;23;45371;-89
2022/09/17 14:35:35;;;;;;;;;0.00;0.00;;;;;;;;6179886;23;46260;-91
2022/09/17 14:38:19;;;;;;;;;0.00;0.00;;;;;;;;6201951;22;45352;-89
2022/09/17 14:40:52;;;;;;;;;1.33;1.33;;;;;;;;6180925;23;45385;-93
2022/09/17 14:43:37;;;;;;;;;0.00;0.00;;;;;;;;6179184;23;45388;-92
2022/09/17 14:46:04;;;;;;;;;1.00;0.00;;;;;;;;6172920;23;46366;-86
2022/09/17 14:48:31;;;;;;;;;0.00;0.00;;;;;;;;6178867;23;45296;-90
2022/09/17 14:51:15;;;;;;;;;0.00;0.00;;;;;;;;6172562;23;45663;-88
2022/09/17 14:53:41;;;;;;;;;0.00;0.00;;;;;;;;6180106;23;45502;-90
2022/09/17 14:56:08;;;;;;;;;0.00;0.00;;;;;;;;6178781;23;45467;-90
2022/09/17 14:58:36;;;;;;;;;0.00;0.00;;;;;;;;6177899;23;45455;-91